Gretna, Missouri
Current Conditions -  °F | °C
As of 10:15 AM on Thursday 18 Dec 2014 (Local Time) from KFWB Reporting Station
Haze Haze  
Wind Chill: 30°   Ceiling: 300
Heat Index: 36°   Visibility: 1.7mi
Dew Point: 36°   Wind: 7mph
Humidity: 100%   Direction: 120°ESE
Pressure: 30.2"   Gusts: NA
Location:  36.6858°N, 93.2638°W
Report Text: KFWB 181615Z AUTO 12006KT 1 3/4SM BR OVC003 02/02 A3020 RMK AO2
Loading
Personal Weather Stations






























Interactive Weather Map New forecast layout! Learn more

10-Day Weather Forecast

Advertisements
Track Severe Weather on mobile